Time;durP1;ratioP1;P1;durP2;ratioP2;P2;SDS_P1;SDS_P2;PMS_P1;PMS_P2;Temp;Humidity;BMP_temperature;BMP_pressure;BME280_temperature;BME280_humidity;BME280_pressure;Samples;Min_cycle;Max_cycle;Signal;HPM_P1;HPM_P2
2022/12/08 00:01:35;;;;;;;;;;;;;;;;;;5075554;28;19963;-62
2022/12/08 00:04:01;;;;;;;;;;;;;;;;;;5077283;28;19964;-62
2022/12/08 00:09:23;;;;;;;;;;;;;;;;;;5074239;28;20068;-63
2022/12/08 00:11:48;;;;;;;;;;;;;;;;;;5075240;28;20009;-61
2022/12/08 00:14:13;;;;;;;;;;;;;;;;;;5079912;28;20351;-62
2022/12/08 00:16:39;;;;;;;;;;;;;;;;;;5078326;28;19928;-62
2022/12/08 00:19:04;;;;;;;;;;;;;;;;;;5079118;28;20011;-62
2022/12/08 00:21:29;;;;;;;;;;;;;;;;;;5079699;28;20382;-62
2022/12/08 00:23:55;;;;;;;;;;;;;;;;;;5081974;28;20291;-62
2022/12/08 00:26:20;;;;;;;;;;;;;;;;;;5083116;28;19931;-63
2022/12/08 00:28:46;;;;;;;;;;;;;;;;;;5085746;28;19931;-62
2022/12/08 00:31:11;;;;;;;;;;;;;;;;;;5081914;28;20317;-62
2022/12/08 00:33:37;;;;;;;;;;;;;;;;;;5082870;28;19920;-62
2022/12/08 00:36:06;;;;;;;;;;;;;;;;;;5082803;28;19928;-63
2022/12/08 00:38:31;;;;;;;;;;;;;;;;;;5081853;28;19947;-62
2022/12/08 00:40:56;;;;;;;;;;;;;;;;;;5080625;28;19932;-63
2022/12/08 00:43:22;;;;;;;;;;;;;;;;;;5079643;28;19924;-61
2022/12/08 00:45:47;;;;;;;;;;;;;;;;;;5082704;28;19959;-62
2022/12/08 00:48:12;;;;;;;;;;;;;;;;;;5084871;28;20427;-62
2022/12/08 00:50:38;;;;;;;;;;;;;;;;;;5075650;28;20370;-63
2022/12/08 00:53:03;;;;;;;;;;;;;;;;;;5078050;28;20007;-61
2022/12/08 00:55:28;;;;;;;;;;;;;;;;;;5077994;28;20430;-60
2022/12/08 00:57:53;;;;;;;;;;;;;;;;;;5075969;28;19924;-60
2022/12/08 01:00:19;;;;;;;;;;;;;;;;;;5081287;28;20412;-60
2022/12/08 01:02:44;;;;;;;;;;;;;;;;;;5076760;28;19934;-61
2022/12/08 01:05:09;;;;;;;;;;;;;;;;;;5079318;28;19932;-61
2022/12/08 01:07:35;;;;;;;;;;;;;;;;;;5076669;28;20011;-61
2022/12/08 01:10:00;;;;;;;;;;;;;;;;;;5078414;28;19924;-63
2022/12/08 01:12:27;;;;;;;;;;;;;;;;;;5079276;28;19982;-61
2022/12/08 01:14:52;;;;;;;;;;;;;;;;;;5076532;28;20384;-61
2022/12/08 01:17:18;;;;;;;;;;;;;;;;;;5080455;28;19932;-60
2022/12/08 01:19:43;;;;;;;;;;;;;;;;;;5077098;28;20508;-61
2022/12/08 01:22:08;;;;;;;;;;;;;;;;;;5075901;28;19943;-61
2022/12/08 01:24:33;;;;;;;;;;;;;;;;;;5081156;28;19920;-61
2022/12/08 01:26:59;;;;;;;;;;;;;;;;;;5077092;28;20478;-61
2022/12/08 01:29:25;;;;;;;;;;;;;;;;;;5079537;28;19928;-61
2022/12/08 01:31:50;;;;;;;;;;;;;;;;;;5078740;28;19924;-61
2022/12/08 01:34:16;;;;;;;;;;;;;;;;;;5077592;28;19924;-61
2022/12/08 01:36:43;;;;;;;;;;;;;;;;;;5073341;28;19924;-61
2022/12/08 01:39:12;;;;;;;;;;;;;;;;;;5075697;28;19924;-61
2022/12/08 01:41:38;;;;;;;;;;;;;;;;;;5077609;28;19943;-61
2022/12/08 01:44:23;;;;;;;;;;;;;;;;;;5079521;28;19924;-61
2022/12/08 01:46:49;;;;;;;;;;;;;;;;;;5069433;28;19924;-62
2022/12/08 01:49:20;;;;;;;;;;;;;;;;;;5084226;28;19931;-62
2022/12/08 01:51:46;;;;;;;;;;;;;;;;;;5081223;28;19920;-62
2022/12/08 01:54:11;;;;;;;;;;;;;;;;;;5083812;28;20631;-62
2022/12/08 01:56:36;;;;;;;;;;;;;;;;;;5082631;28;20020;-62
2022/12/08 01:59:02;;;;;;;;;;;;;;;;;;5081335;28;19935;-63
2022/12/08 02:01:28;;;;;;;;;;;;;;;;;;5079179;28;19932;-61
2022/12/08 02:04:00;;;;;;;;;;;;;;;;;;5076406;28;19924;-62
2022/12/08 02:06:27;;;;;;;;;;;;;;;;;;5083502;28;19974;-62
2022/12/08 02:08:54;;;;;;;;;;;;;;;;;;5083550;28;19934;-62
2022/12/08 02:11:19;;;;;;;;;;;;;;;;;;5080855;28;20321;-62
2022/12/08 02:13:46;;;;;;;;;;;;;;;;;;5081776;28;19971;-62
2022/12/08 02:16:19;;;;;;;;;;;;;;;;;;5084281;28;20463;-63
2022/12/08 02:19:03;;;;;;;;;;;;;;;;;;5084365;28;19920;-60
2022/12/08 02:21:35;;;;;;;;;;;;;;;;;;5081529;28;19935;-62
2022/12/08 02:24:13;;;;;;;;;;;;;;;;;;5074001;28;19928;-62
2022/12/08 02:26:41;;;;;;;;;;;;;;;;;;5076403;28;19939;-61
2022/12/08 02:29:35;;;;;;;;;;;;;;;;;;5076894;28;19928;-61
2022/12/08 02:32:19;;;;;;;;;;;;;;;;;;5077059;28;19936;-60
2022/12/08 02:34:48;;;;;;;;;;;;;;;;;;5069879;28;19970;-61
2022/12/08 02:37:31;;;;;;;;;;;;;;;;;;5076671;28;20060;-61
2022/12/08 02:40:06;;;;;;;;;;;;;;;;;;5075760;28;19932;-61
2022/12/08 02:42:41;;;;;;;;;;;;;;;;;;5080731;28;20008;-61
2022/12/08 02:45:15;;;;;;;;;;;;;;;;;;5077516;28;19924;-61
2022/12/08 02:47:41;;;;;;;;;;;;;;;;;;5079386;28;19924;-61
2022/12/08 02:50:06;;;;;;;;;;;;;;;;;;5077248;28;19930;-61
2022/12/08 02:52:32;;;;;;;;;;;;;;;;;;5082871;28;19928;-61
2022/12/08 02:55:02;;;;;;;;;;;;;;;;;;5082827;28;19928;-63
2022/12/08 02:57:36;;;;;;;;;;;;;;;;;;5077002;28;19939;-62
2022/12/08 03:00:05;;;;;;;;;;;;;;;;;;5075051;28;19939;-61
2022/12/08 03:02:39;;;;;;;;;;;;;;;;;;5079727;28;20065;-62
2022/12/08 03:05:13;;;;;;;;;;;;;;;;;;5075526;28;20328;-60
2022/12/08 03:07:39;;;;;;;;;;;;;;;;;;5077979;28;19928;-61
2022/12/08 03:10:08;;;;;;;;;;;;;;;;;;5081002;28;20378;-61
2022/12/08 03:12:47;;;;;;;;;;;;;;;;;;5083669;28;19947;-61
2022/12/08 03:15:14;;;;;;;;;;;;;;;;;;5079368;28;19927;-61
2022/12/08 03:17:41;;;;;;;;;;;;;;;;;;5082500;28;20014;-60
2022/12/08 03:20:10;;;;;;;;;;;;;;;;;;5081217;28;20291;-61
2022/12/08 03:22:36;;;;;;;;;;;;;;;;;;5082508;28;19924;-60
2022/12/08 03:25:02;;;;;;;;;;;;;;;;;;5077129;28;20310;-61
2022/12/08 03:27:28;;;;;;;;;;;;;;;;;;5076887;28;19932;-61
2022/12/08 03:29:55;;;;;;;;;;;;;;;;;;5077392;28;19931;-60
2022/12/08 03:32:20;;;;;;;;;;;;;;;;;;5074325;28;20018;-60
2022/12/08 03:34:46;;;;;;;;;;;;;;;;;;5073340;28;20019;-61
2022/12/08 03:37:12;;;;;;;;;;;;;;;;;;5079470;28;20020;-60
2022/12/08 03:39:37;;;;;;;;;;;;;;;;;;5070427;28;20015;-60
2022/12/08 03:42:03;;;;;;;;;;;;;;;;;;5077755;28;19932;-61
2022/12/08 03:44:28;;;;;;;;;;;;;;;;;;5082044;28;19924;-61
2022/12/08 03:46:53;;;;;;;;;;;;;;;;;;5084431;28;19928;-60
2022/12/08 03:49:18;;;;;;;;;;;;;;;;;;5083998;28;20378;-60
2022/12/08 03:51:44;;;;;;;;;;;;;;;;;;5081635;28;19920;-64
2022/12/08 03:54:09;;;;;;;;;;;;;;;;;;5078521;28;19932;-60
2022/12/08 03:56:36;;;;;;;;;;;;;;;;;;5081728;28;19971;-60
2022/12/08 03:59:01;;;;;;;;;;;;;;;;;;5083714;28;20342;-60
2022/12/08 04:01:27;;;;;;;;;;;;;;;;;;5085986;28;19937;-60
2022/12/08 04:03:52;;;;;;;;;;;;;;;;;;5086930;28;20018;-59
2022/12/08 04:06:18;;;;;;;;;;;;;;;;;;5086342;28;19925;-60
2022/12/08 04:08:43;;;;;;;;;;;;;;;;;;5085358;28;19924;-60
2022/12/08 04:11:08;;;;;;;;;;;;;;;;;;5087427;28;19931;-60
2022/12/08 04:13:35;;;;;;;;;;;;;;;;;;5080426;28;20037;-60
2022/12/08 04:16:00;;;;;;;;;;;;;;;;;;5084109;28;20037;-61
2022/12/08 04:18:26;;;;;;;;;;;;;;;;;;5082043;28;20446;-61
2022/12/08 04:20:51;;;;;;;;;;;;;;;;;;5083047;28;19928;-61
2022/12/08 04:23:16;;;;;;;;;;;;;;;;;;5080790;28;19932;-61
2022/12/08 04:25:42;;;;;;;;;;;;;;;;;;5083582;28;19928;-61
2022/12/08 04:28:07;;;;;;;;;;;;;;;;;;5084713;28;20370;-61
2022/12/08 04:30:33;;;;;;;;;;;;;;;;;;5078194;28;19924;-61
2022/12/08 04:32:58;;;;;;;;;;;;;;;;;;5076153;28;19925;-61
2022/12/08 04:35:24;;;;;;;;;;;;;;;;;;5080863;28;19935;-61
2022/12/08 04:37:49;;;;;;;;;;;;;;;;;;5077481;28;19924;-62
2022/12/08 04:40:14;;;;;;;;;;;;;;;;;;5077167;28;20388;-61
2022/12/08 04:42:40;;;;;;;;;;;;;;;;;;5077715;28;20015;-61
2022/12/08 04:45:05;;;;;;;;;;;;;;;;;;5078864;28;19929;-61
2022/12/08 04:47:31;;;;;;;;;;;;;;;;;;5082358;28;20413;-62
2022/12/08 04:49:56;;;;;;;;;;;;;;;;;;5079663;28;19932;-61
2022/12/08 04:52:22;;;;;;;;;;;;;;;;;;5082177;28;19936;-61
2022/12/08 04:54:47;;;;;;;;;;;;;;;;;;5078871;28;19927;-61
2022/12/08 04:57:12;;;;;;;;;;;;;;;;;;5078090;28;19954;-61
2022/12/08 04:59:38;;;;;;;;;;;;;;;;;;5077784;28;19931;-61
2022/12/08 05:02:03;;;;;;;;;;;;;;;;;;5079735;28;19932;-61
2022/12/08 05:04:28;;;;;;;;;;;;;;;;;;5081777;28;19924;-62
2022/12/08 05:06:54;;;;;;;;;;;;;;;;;;5083650;28;20010;-61
2022/12/08 05:09:19;;;;;;;;;;;;;;;;;;5080840;28;19929;-62
2022/12/08 05:11:44;;;;;;;;;;;;;;;;;;5085610;28;19962;-61
2022/12/08 05:14:10;;;;;;;;;;;;;;;;;;5081545;28;19980;-61
2022/12/08 05:16:36;;;;;;;;;;;;;;;;;;5081913;28;19939;-69
2022/12/08 05:19:01;;;;;;;;;;;;;;;;;;5079539;28;19928;-69
2022/12/08 05:21:26;;;;;;;;;;;;;;;;;;5079787;28;19932;-69
2022/12/08 05:23:52;;;;;;;;;;;;;;;;;;5079018;28;19925;-69
2022/12/08 05:26:17;;;;;;;;;;;;;;;;;;5081855;28;20579;-69
2022/12/08 05:28:42;;;;;;;;;;;;;;;;;;5080430;28;19984;-69
2022/12/08 05:31:08;;;;;;;;;;;;;;;;;;5080159;28;20291;-69
2022/12/08 05:33:33;;;;;;;;;;;;;;;;;;5082476;28;19968;-69
2022/12/08 05:35:58;;;;;;;;;;;;;;;;;;5081480;28;19924;-69
2022/12/08 05:38:24;;;;;;;;;;;;;;;;;;5080795;28;20386;-69
2022/12/08 05:40:49;;;;;;;;;;;;;;;;;;5076418;28;19943;-69
2022/12/08 05:43:14;;;;;;;;;;;;;;;;;;5080600;28;20026;-70
2022/12/08 05:45:39;;;;;;;;;;;;;;;;;;5082241;28;19924;-70
2022/12/08 05:48:05;;;;;;;;;;;;;;;;;;5084050;28;19939;-69
2022/12/08 05:50:30;;;;;;;;;;;;;;;;;;5083492;28;19935;-70
2022/12/08 05:52:55;;;;;;;;;;;;;;;;;;5085298;28;19932;-69
2022/12/08 05:55:21;;;;;;;;;;;;;;;;;;5083637;28;19963;-70
2022/12/08 05:57:46;;;;;;;;;;;;;;;;;;5081080;28;19963;-69
2022/12/08 06:00:12;;;;;;;;;;;;;;;;;;5081724;28;19932;-69
2022/12/08 06:02:37;;;;;;;;;;;;;;;;;;5083410;28;19924;-70
2022/12/08 06:05:02;;;;;;;;;;;;;;;;;;5085556;28;19935;-70
2022/12/08 06:07:27;;;;;;;;;;;;;;;;;;5080705;28;20023;-69
2022/12/08 06:09:53;;;;;;;;;;;;;;;;;;5083308;28;19942;-70
2022/12/08 06:12:20;;;;;;;;;;;;;;;;;;5084478;28;19935;-69
2022/12/08 06:14:45;;;;;;;;;;;;;;;;;;5077820;28;20464;-68
2022/12/08 06:17:10;;;;;;;;;;;;;;;;;;5076802;28;19950;-68
2022/12/08 06:19:36;;;;;;;;;;;;;;;;;;5081372;28;19935;-68
2022/12/08 06:22:01;;;;;;;;;;;;;;;;;;5079090;28;20313;-67
2022/12/08 06:24:26;;;;;;;;;;;;;;;;;;5079312;28;19944;-67
2022/12/08 06:26:51;;;;;;;;;;;;;;;;;;5078882;28;20069;-68
2022/12/08 06:29:17;;;;;;;;;;;;;;;;;;5063882;28;20635;-68
2022/12/08 06:31:42;;;;;;;;;;;;;;;;;;5060733;28;20356;-67
2022/12/08 06:34:07;;;;;;;;;;;;;;;;;;5073697;28;19924;-67
2022/12/08 06:36:33;;;;;;;;;;;;;;;;;;5074123;28;19928;-67
2022/12/08 06:38:59;;;;;;;;;;;;;;;;;;5076681;28;19931;-68
2022/12/08 06:41:24;;;;;;;;;;;;;;;;;;5075226;28;20029;-68
2022/12/08 06:43:49;;;;;;;;;;;;;;;;;;5077173;28;20591;-67
2022/12/08 06:46:16;;;;;;;;;;;;;;;;;;5078888;28;19963;-69
2022/12/08 06:48:41;;;;;;;;;;;;;;;;;;5079291;28;19920;-68
2022/12/08 06:51:10;;;;;;;;;;;;;;;;;;5079328;28;19931;-68
2022/12/08 06:53:35;;;;;;;;;;;;;;;;;;5080516;28;19963;-68
2022/12/08 06:56:00;;;;;;;;;;;;;;;;;;5073594;28;19991;-68
2022/12/08 06:58:26;;;;;;;;;;;;;;;;;;5069539;28;19970;-67
2022/12/08 07:00:51;;;;;;;;;;;;;;;;;;5074799;28;20018;-68
2022/12/08 07:03:16;;;;;;;;;;;;;;;;;;5078845;28;19996;-68
2022/12/08 07:05:41;;;;;;;;;;;;;;;;;;5074693;28;20466;-67
2022/12/08 07:08:07;;;;;;;;;;;;;;;;;;5082385;28;19924;-66
2022/12/08 07:10:32;;;;;;;;;;;;;;;;;;5080800;28;20014;-66
2022/12/08 07:12:58;;;;;;;;;;;;;;;;;;5077212;28;19985;-69
2022/12/08 07:15:23;;;;;;;;;;;;;;;;;;5077468;28;20484;-67
2022/12/08 07:17:49;;;;;;;;;;;;;;;;;;5082673;28;20306;-67
2022/12/08 07:20:14;;;;;;;;;;;;;;;;;;5080401;28;20014;-69
2022/12/08 07:22:39;;;;;;;;;;;;;;;;;;5080900;28;19924;-68
2022/12/08 07:25:05;;;;;;;;;;;;;;;;;;5081441;28;19924;-63
2022/12/08 07:27:30;;;;;;;;;;;;;;;;;;5080086;28;19924;-68
2022/12/08 07:29:56;;;;;;;;;;;;;;;;;;5079059;28;19932;-68
2022/12/08 07:32:21;;;;;;;;;;;;;;;;;;5080381;28;19932;-68
2022/12/08 07:34:46;;;;;;;;;;;;;;;;;;5081741;28;19982;-68
2022/12/08 07:37:12;;;;;;;;;;;;;;;;;;5078837;28;19967;-69
2022/12/08 07:39:37;;;;;;;;;;;;;;;;;;5079158;28;19930;-68
2022/12/08 07:42:02;;;;;;;;;;;;;;;;;;5081117;28;19924;-68
2022/12/08 07:44:27;;;;;;;;;;;;;;;;;;5079755;28;19932;-67
2022/12/08 07:46:53;;;;;;;;;;;;;;;;;;5083705;28;19924;-68
2022/12/08 07:49:18;;;;;;;;;;;;;;;;;;5078408;28;20022;-68
2022/12/08 07:51:43;;;;;;;;;;;;;;;;;;5079904;28;19920;-68
2022/12/08 07:54:12;;;;;;;;;;;;;;;;;;5081046;28;19933;-67
2022/12/08 07:56:37;;;;;;;;;;;;;;;;;;5071625;28;19949;-71
2022/12/08 07:59:03;;;;;;;;;;;;;;;;;;5078157;28;20005;-68
2022/12/08 08:01:29;;;;;;;;;;;;;;;;;;5079950;28;19935;-69
2022/12/08 08:03:55;;;;;;;;;;;;;;;;;;5083061;28;19924;-69
2022/12/08 08:06:21;;;;;;;;;;;;;;;;;;5083070;28;20030;-68
2022/12/08 08:08:46;;;;;;;;;;;;;;;;;;5084088;28;19928;-71
2022/12/08 08:11:11;;;;;;;;;;;;;;;;;;5084237;28;19928;-73
2022/12/08 08:13:37;;;;;;;;;;;;;;;;;;5075578;28;19936;-69
2022/12/08 08:16:06;;;;;;;;;;;;;;;;;;5076640;28;19927;-71
2022/12/08 08:18:32;;;;;;;;;;;;;;;;;;5078417;28;19924;-72
2022/12/08 08:20:57;;;;;;;;;;;;;;;;;;5079186;28;19939;-72
2022/12/08 08:23:23;;;;;;;;;;;;;;;;;;5083458;28;20007;-69
2022/12/08 08:25:48;;;;;;;;;;;;;;;;;;5073832;28;19924;-68
2022/12/08 08:28:14;;;;;;;;;;;;;;;;;;5074833;28;19955;-67
2022/12/08 08:30:39;;;;;;;;;;;;;;;;;;5076877;28;20366;-69
2022/12/08 08:33:04;;;;;;;;;;;;;;;;;;5083373;28;19928;-69
2022/12/08 08:35:30;;;;;;;;;;;;;;;;;;5082330;28;19932;-71
2022/12/08 08:37:56;;;;;;;;;;;;;;;;;;5078013;28;19937;-70
2022/12/08 08:40:21;;;;;;;;;;;;;;;;;;5081706;28;19920;-70
2022/12/08 08:42:46;;;;;;;;;;;;;;;;;;5079673;28;20373;-69
2022/12/08 08:45:12;;;;;;;;;;;;;;;;;;5084942;28;19971;-69
2022/12/08 08:47:37;;;;;;;;;;;;;;;;;;5082285;28;19932;-69
2022/12/08 08:50:03;;;;;;;;;;;;;;;;;;5080309;28;19928;-70
2022/12/08 08:52:28;;;;;;;;;;;;;;;;;;5074869;28;20407;-70
2022/12/08 08:54:54;;;;;;;;;;;;;;;;;;5073788;28;20045;-71
2022/12/08 08:57:19;;;;;;;;;;;;;;;;;;5077437;28;20429;-73
2022/12/08 08:59:44;;;;;;;;;;;;;;;;;;5073849;28;19932;-73
2022/12/08 09:02:15;;;;;;;;;;;;;;;;;;5067783;28;19959;-72
2022/12/08 09:04:40;;;;;;;;;;;;;;;;;;5074575;28;19932;-72
2022/12/08 09:07:05;;;;;;;;;;;;;;;;;;5080313;28;20096;-70
2022/12/08 09:09:30;;;;;;;;;;;;;;;;;;5086091;28;19931;-72
2022/12/08 09:11:56;;;;;;;;;;;;;;;;;;5083952;28;19941;-74
2022/12/08 09:14:22;;;;;;;;;;;;;;;;;;5086473;28;19933;-71
2022/12/08 09:16:47;;;;;;;;;;;;;;;;;;5081434;28;20027;-73
2022/12/08 09:19:13;;;;;;;;;;;;;;;;;;5085839;28;19991;-73
2022/12/08 09:21:38;;;;;;;;;;;;;;;;;;5087782;28;19972;-73
2022/12/08 09:24:04;;;;;;;;;;;;;;;;;;5083287;28;20277;-73
2022/12/08 09:26:29;;;;;;;;;;;;;;;;;;5083132;28;19966;-73
2022/12/08 09:28:55;;;;;;;;;;;;;;;;;;5082717;28;19928;-73
2022/12/08 09:31:21;;;;;;;;;;;;;;;;;;5083904;28;19928;-74
2022/12/08 09:33:47;;;;;;;;;;;;;;;;;;5081627;28;20335;-74
2022/12/08 09:36:13;;;;;;;;;;;;;;;;;;5082352;28;20385;-72
2022/12/08 09:38:38;;;;;;;;;;;;;;;;;;5080156;28;19928;-72
2022/12/08 09:41:12;;;;;;;;;;;;;;;;;;5083805;28;19931;-73
2022/12/08 09:43:50;;;;;;;;;;;;;;;;;;5087059;28;19924;-72
2022/12/08 09:46:16;;;;;;;;;;;;;;;;;;5085829;28;19931;-73
2022/12/08 09:48:46;;;;;;;;;;;;;;;;;;5086777;28;19928;-73
2022/12/08 09:51:13;;;;;;;;;;;;;;;;;;5085114;28;19963;-72
2022/12/08 09:53:44;;;;;;;;;;;;;;;;;;5084609;28;20278;-72
2022/12/08 09:56:21;;;;;;;;;;;;;;;;;;5087028;28;19932;-72
2022/12/08 09:58:47;;;;;;;;;;;;;;;;;;5087456;28;20286;-72
2022/12/08 10:01:13;;;;;;;;;;;;;;;;;;5086605;28;19935;-71
2022/12/08 10:03:39;;;;;;;;;;;;;;;;;;5085142;28;20302;-72
2022/12/08 10:06:23;;;;;;;;;;;;;;;;;;5086205;28;19928;-72
2022/12/08 10:08:57;;;;;;;;;;;;;;;;;;5085980;28;19935;-72
2022/12/08 10:11:26;;;;;;;;;;;;;;;;;;5085463;28;20443;-72
2022/12/08 10:13:57;;;;;;;;;;;;;;;;;;5094221;28;19963;-72
2022/12/08 10:16:38;;;;;;;;;;;;;;;;;;5084722;28;19963;-72
2022/12/08 10:19:14;;;;;;;;;;;;;;;;;;5085075;28;20064;-73
2022/12/08 10:21:40;;;;;;;;;;;;;;;;;;5083360;28;19943;-73
2022/12/08 10:24:10;;;;;;;;;;;;;;;;;;5083812;28;19934;-72
2022/12/08 10:26:35;;;;;;;;;;;;;;;;;;5083155;28;20027;-74
2022/12/08 10:29:01;;;;;;;;;;;;;;;;;;5099094;28;20054;-72
2022/12/08 10:31:28;;;;;;;;;;;;;;;;;;5079523;28;19977;-72
2022/12/08 10:33:59;;;;;;;;;;;;;;;;;;5076571;28;21371;-72
2022/12/08 10:36:43;;;;;;;;;;;;;;;;;;5081112;28;19935;-71
2022/12/08 10:39:27;;;;;;;;;;;;;;;;;;5075499;28;19939;-72
2022/12/08 10:41:52;;;;;;;;;;;;;;;;;;5082223;28;19981;-72
2022/12/08 10:44:17;;;;;;;;;;;;;;;;;;5085546;28;19927;-73
2022/12/08 10:46:43;;;;;;;;;;;;;;;;;;5084277;28;20393;-72
2022/12/08 10:49:08;;;;;;;;;;;;;;;;;;5085876;28;19924;-71
2022/12/08 10:51:38;;;;;;;;;;;;;;;;;;5085508;28;20321;-72
2022/12/08 10:54:05;;;;;;;;;;;;;;;;;;5082315;28;20000;-72
2022/12/08 10:56:31;;;;;;;;;;;;;;;;;;5085192;28;19935;-72
2022/12/08 10:59:05;;;;;;;;;;;;;;;;;;5082930;28;20077;-72
2022/12/08 11:01:36;;;;;;;;;;;;;;;;;;5083225;28;19997;-72
2022/12/08 11:04:03;;;;;;;;;;;;;;;;;;5081612;28;19931;-72
2022/12/08 11:06:28;;;;;;;;;;;;;;;;;;5082871;28;20309;-72
2022/12/08 11:08:57;;;;;;;;;;;;;;;;;;5079630;28;19932;-72
2022/12/08 11:11:36;;;;;;;;;;;;;;;;;;5082115;28;20298;-72
2022/12/08 11:14:05;;;;;;;;;;;;;;;;;;5077244;28;20155;-73
2022/12/08 11:16:31;;;;;;;;;;;;;;;;;;5075021;28;20027;-72
2022/12/08 11:18:56;;;;;;;;;;;;;;;;;;5071368;28;19928;-72
2022/12/08 11:21:29;;;;;;;;;;;;;;;;;;5063718;28;19935;-69
2022/12/08 11:23:54;;;;;;;;;;;;;;;;;;5076675;28;19924;-72
2022/12/08 11:26:24;;;;;;;;;;;;;;;;;;5069381;28;20031;-70
2022/12/08 11:28:50;;;;;;;;;;;;;;;;;;5075400;28;19924;-75
2022/12/08 11:31:27;;;;;;;;;;;;;;;;;;5072493;28;19930;-73
2022/12/08 11:33:53;;;;;;;;;;;;;;;;;;5074031;28;20001;-73
2022/12/08 11:36:20;;;;;;;;;;;;;;;;;;5067746;28;19932;-72
2022/12/08 11:38:47;;;;;;;;;;;;;;;;;;5073436;28;19993;-72
2022/12/08 11:41:18;;;;;;;;;;;;;;;;;;5078148;28;20027;-71
2022/12/08 11:44:02;;;;;;;;;;;;;;;;;;5075368;28;19936;-74
2022/12/08 11:46:32;;;;;;;;;;;;;;;;;;5080802;28;19932;-68
2022/12/08 11:49:00;;;;;;;;;;;;;;;;;;5078673;28;19932;-72
2022/12/08 11:51:32;;;;;;;;;;;;;;;;;;5082586;28;20724;-70
2022/12/08 11:54:00;;;;;;;;;;;;;;;;;;5083214;28;20043;-75
2022/12/08 11:56:40;;;;;;;;;;;;;;;;;;5082329;28;19969;-70
2022/12/08 11:59:05;;;;;;;;;;;;;;;;;;5083532;28;19931;-70
2022/12/08 12:01:30;;;;;;;;;;;;;;;;;;5069540;28;19925;-70
2022/12/08 12:04:08;;;;;;;;;;;;;;;;;;5077689;28;19932;-70
2022/12/08 12:06:42;;;;;;;;;;;;;;;;;;5079085;28;19974;-69
2022/12/08 12:09:34;;;;;;;;;;;;;;;;;;5081340;28;21400;-69
2022/12/08 12:12:15;;;;;;;;;;;;;;;;;;5073298;28;19990;-69
2022/12/08 12:14:49;;;;;;;;;;;;;;;;;;5079722;28;20310;-76
2022/12/08 12:17:21;;;;;;;;;;;;;;;;;;5081490;28;19930;-70
2022/12/08 12:19:47;;;;;;;;;;;;;;;;;;5084018;28;19924;-70
2022/12/08 12:22:18;;;;;;;;;;;;;;;;;;5082706;28;19933;-71
2022/12/08 12:24:46;;;;;;;;;;;;;;;;;;5084474;28;19967;-70
2022/12/08 12:27:11;;;;;;;;;;;;;;;;;;5080617;28;19928;-73
2022/12/08 12:29:37;;;;;;;;;;;;;;;;;;5082719;28;19920;-70
2022/12/08 12:32:04;;;;;;;;;;;;;;;;;;5083985;28;19932;-70
2022/12/08 12:34:35;;;;;;;;;;;;;;;;;;5087069;28;19932;-70
2022/12/08 12:37:09;;;;;;;;;;;;;;;;;;5081961;28;19953;-68
2022/12/08 12:39:54;;;;;;;;;;;;;;;;;;5081960;28;19931;-69
2022/12/08 12:42:36;;;;;;;;;;;;;;;;;;5083463;28;19939;-69
2022/12/08 12:45:16;;;;;;;;;;;;;;;;;;5085689;28;19924;-70
2022/12/08 12:48:02;;;;;;;;;;;;;;;;;;5085087;28;20024;-69
2022/12/08 12:50:33;;;;;;;;;;;;;;;;;;5072252;28;19932;-68
2022/12/08 12:53:25;;;;;;;;;;;;;;;;;;5087629;28;19959;-68
2022/12/08 12:55:54;;;;;;;;;;;;;;;;;;5086869;28;19973;-69
2022/12/08 12:58:26;;;;;;;;;;;;;;;;;;5085311;28;19927;-69
2022/12/08 13:01:14;;;;;;;;;;;;;;;;;;5085443;28;19932;-68
2022/12/08 13:03:41;;;;;;;;;;;;;;;;;;5084650;28;20003;-69
2022/12/08 13:06:06;;;;;;;;;;;;;;;;;;5085858;28;19927;-69
2022/12/08 13:08:32;;;;;;;;;;;;;;;;;;5086456;28;19932;-70
2022/12/08 13:11:05;;;;;;;;;;;;;;;;;;5080797;28;19932;-69
2022/12/08 13:13:31;;;;;;;;;;;;;;;;;;5083324;28;20302;-69
2022/12/08 13:16:04;;;;;;;;;;;;;;;;;;5081418;28;19932;-74
2022/12/08 13:18:45;;;;;;;;;;;;;;;;;;5086416;28;19936;-72
2022/12/08 13:21:13;;;;;;;;;;;;;;;;;;5089309;28;19924;-74
2022/12/08 13:24:02;;;;;;;;;;;;;;;;;;5087038;28;19920;-75
2022/12/08 13:26:27;;;;;;;;;;;;;;;;;;5073314;28;20022;-71
2022/12/08 13:29:05;;;;;;;;;;;;;;;;;;5081374;28;20058;-70
2022/12/08 13:31:44;;;;;;;;;;;;;;;;;;5085872;28;19973;-70
2022/12/08 13:34:28;;;;;;;;;;;;;;;;;;5081181;28;20019;-70
2022/12/08 13:37:14;;;;;;;;;;;;;;;;;;5077247;28;20005;-71
2022/12/08 13:39:39;;;;;;;;;;;;;;;;;;5074264;28;19951;-70
2022/12/08 13:42:11;;;;;;;;;;;;;;;;;;5081920;28;20664;-71
2022/12/08 13:44:36;;;;;;;;;;;;;;;;;;5080643;28;19943;-70
2022/12/08 13:47:03;;;;;;;;;;;;;;;;;;5083692;28;19932;-69
2022/12/08 13:49:34;;;;;;;;;;;;;;;;;;5084777;28;19946;-70
2022/12/08 13:52:00;;;;;;;;;;;;;;;;;;5084481;28;19936;-71
2022/12/08 13:54:28;;;;;;;;;;;;;;;;;;5077711;28;19928;-69
2022/12/08 13:56:54;;;;;;;;;;;;;;;;;;5086652;28;19928;-70
2022/12/08 13:59:27;;;;;;;;;;;;;;;;;;5080378;28;20400;-74
2022/12/08 14:01:53;;;;;;;;;;;;;;;;;;5086465;28;20734;-70
2022/12/08 14:04:19;;;;;;;;;;;;;;;;;;5087024;28;20999;-71
2022/12/08 14:06:46;;;;;;;;;;;;;;;;;;5082727;28;19986;-71
2022/12/08 14:09:14;;;;;;;;;;;;;;;;;;5086031;28;20391;-73
2022/12/08 14:11:41;;;;;;;;;;;;;;;;;;5080218;28;20353;-74
2022/12/08 14:14:25;;;;;;;;;;;;;;;;;;5082536;28;19942;-75
2022/12/08 14:16:59;;;;;;;;;;;;;;;;;;5077342;28;19987;-75
2022/12/08 14:19:25;;;;;;;;;;;;;;;;;;5077538;28;19928;-77
2022/12/08 14:21:58;;;;;;;;;;;;;;;;;;5078419;28;19959;-69
2022/12/08 14:24:25;;;;;;;;;;;;;;;;;;5078389;28;19947;-74
2022/12/08 14:26:55;;;;;;;;;;;;;;;;;;5076052;28;19924;-68
2022/12/08 14:29:26;;;;;;;;;;;;;;;;;;5072381;28;19928;-77
2022/12/08 14:31:52;;;;;;;;;;;;;;;;;;5077508;28;19932;-72
2022/12/08 14:34:17;;;;;;;;;;;;;;;;;;5076251;28;19985;-70
2022/12/08 14:36:43;;;;;;;;;;;;;;;;;;5075673;28;19932;-69
2022/12/08 14:39:08;;;;;;;;;;;;;;;;;;5075407;28;20020;-70
2022/12/08 14:41:33;;;;;;;;;;;;;;;;;;5079917;28;20405;-69
2022/12/08 14:44:00;;;;;;;;;;;;;;;;;;5078918;28;20015;-69
2022/12/08 14:46:25;;;;;;;;;;;;;;;;;;5080493;28;21303;-68
2022/12/08 14:48:52;;;;;;;;;;;;;;;;;;5074970;28;19950;-69
2022/12/08 14:51:17;;;;;;;;;;;;;;;;;;5077439;28;19928;-70
2022/12/08 14:53:52;;;;;;;;;;;;;;;;;;5071538;28;19990;-68
2022/12/08 14:56:17;;;;;;;;;;;;;;;;;;5076290;28;19932;-69
2022/12/08 14:58:42;;;;;;;;;;;;;;;;;;5074633;28;20413;-68
2022/12/08 15:01:11;;;;;;;;;;;;;;;;;;5078464;28;19959;-71
2022/12/08 15:03:36;;;;;;;;;;;;;;;;;;5074517;28;19932;-69
2022/12/08 15:06:03;;;;;;;;;;;;;;;;;;5077717;28;19977;-69
2022/12/08 15:08:29;;;;;;;;;;;;;;;;;;5075814;28;19924;-70
2022/12/08 15:11:23;;;;;;;;;;;;;;;;;;5077989;28;19956;-69
2022/12/08 15:13:50;;;;;;;;;;;;;;;;;;5077713;28;19935;-69
2022/12/08 15:16:41;;;;;;;;;;;;;;;;;;5073270;28;19924;-73
2022/12/08 15:19:16;;;;;;;;;;;;;;;;;;5071222;28;19932;-71
2022/12/08 15:21:42;;;;;;;;;;;;;;;;;;5079857;28;19958;-69
2022/12/08 15:24:11;;;;;;;;;;;;;;;;;;5073525;28;19928;-69
2022/12/08 15:26:46;;;;;;;;;;;;;;;;;;5076675;28;19931;-70
2022/12/08 15:29:20;;;;;;;;;;;;;;;;;;5069771;28;19939;-67
2022/12/08 15:31:46;;;;;;;;;;;;;;;;;;5072907;28;20370;-68
2022/12/08 15:34:11;;;;;;;;;;;;;;;;;;5073231;28;19977;-71
2022/12/08 15:36:38;;;;;;;;;;;;;;;;;;5080443;28;20267;-73
2022/12/08 15:39:11;;;;;;;;;;;;;;;;;;5078692;28;19927;-70
2022/12/08 15:41:36;;;;;;;;;;;;;;;;;;5081113;28;19928;-70
2022/12/08 15:44:02;;;;;;;;;;;;;;;;;;5077835;28;19947;-70
2022/12/08 15:46:27;;;;;;;;;;;;;;;;;;5073122;28;19994;-71
2022/12/08 15:48:52;;;;;;;;;;;;;;;;;;5076785;28;19928;-73
2022/12/08 15:51:18;;;;;;;;;;;;;;;;;;5081514;28;20003;-71
2022/12/08 15:53:43;;;;;;;;;;;;;;;;;;5088629;28;19920;-73
2022/12/08 15:56:08;;;;;;;;;;;;;;;;;;5082070;28;19934;-71
2022/12/08 15:58:35;;;;;;;;;;;;;;;;;;5082898;27;19989;-72
2022/12/08 16:01:01;;;;;;;;;;;;;;;;;;5084789;28;20018;-73
2022/12/08 16:03:27;;;;;;;;;;;;;;;;;;5086890;28;19991;-72
2022/12/08 16:05:54;;;;;;;;;;;;;;;;;;5087821;28;20374;-71
2022/12/08 16:08:20;;;;;;;;;;;;;;;;;;5084018;28;20019;-73
2022/12/08 16:10:45;;;;;;;;;;;;;;;;;;5084427;28;20222;-70
2022/12/08 16:15:59;;;;;;;;;;;;;;;;;;5087140;28;20380;-74
2022/12/08 16:18:27;;;;;;;;;;;;;;;;;;5088357;28;19969;-72
2022/12/08 16:20:52;;;;;;;;;;;;;;;;;;5086018;28;19920;-72
2022/12/08 16:23:17;;;;;;;;;;;;;;;;;;5088297;28;19924;-72
2022/12/08 16:25:42;;;;;;;;;;;;;;;;;;5084715;28;19943;-73
2022/12/08 16:28:08;;;;;;;;;;;;;;;;;;5082391;28;19953;-69
2022/12/08 16:30:33;;;;;;;;;;;;;;;;;;5084337;28;19967;-69
2022/12/08 16:32:58;;;;;;;;;;;;;;;;;;5083897;28;19931;-72
2022/12/08 16:35:24;;;;;;;;;;;;;;;;;;5085580;28;19947;-68
2022/12/08 16:37:49;;;;;;;;;;;;;;;;;;5087427;28;20019;-69
2022/12/08 16:40:14;;;;;;;;;;;;;;;;;;5087051;28;19928;-68
2022/12/08 16:42:42;;;;;;;;;;;;;;;;;;5087345;28;19928;-68
2022/12/08 16:45:16;;;;;;;;;;;;;;;;;;5086046;28;19920;-67
2022/12/08 16:47:50;;;;;;;;;;;;;;;;;;5081101;28;19924;-69
2022/12/08 16:50:30;;;;;;;;;;;;;;;;;;5085733;28;19932;-68
2022/12/08 16:52:59;;;;;;;;;;;;;;;;;;5086241;28;20419;-68
2022/12/08 16:55:25;;;;;;;;;;;;;;;;;;5086351;28;20015;-67
2022/12/08 16:57:50;;;;;;;;;;;;;;;;;;5082727;28;20007;-72